Time;durP1;ratioP1;P1;durP2;ratioP2;P2;SDS_P1;SDS_P2;PMS_P1;PMS_P2;Temp;Humidity;BMP_temperature;BMP_pressure;BME280_temperature;BME280_humidity;BME280_pressure;Samples;Min_cycle;Max_cycle;Signal;HPM_P1;HPM_P2
2024/02/09 00:00:40;;;;;;;9.90;5.30;;;;;;;-147.86;100.00;14595.31;105748;1257;59640;-60
2024/02/09 00:03:10;;;;;;;7.90;4.50;;;;;;;-147.86;100.00;14835.85;105728;1257;59682;-59
2024/02/09 00:05:39;;;;;;;11.10;5.30;;;;;;;-147.86;100.00;14787.64;105661;1254;71732;-54
2024/02/09 00:08:06;;;;;;;14.10;5.50;;;;;;;-147.86;100.00;14790.70;105642;1255;63197;-58
2024/02/09 00:10:36;;;;;;;7.50;4.80;;;;;;;-147.86;100.00;14622.00;105710;1254;71383;-57
2024/02/09 00:13:12;;;;;;;8.80;4.90;;;;;;;-147.86;100.00;14358.49;105729;1257;59721;-57
2024/02/09 00:15:42;;;;;;;7.50;4.90;;;;;;;-147.86;100.00;13722.76;105756;1254;59737;-57
2024/02/09 00:18:10;;;;;;;8.60;4.80;;;;;;;-147.86;100.00;13704.72;105784;1257;73006;-58
2024/02/09 00:20:38;;;;;;;8.00;5.00;;;;;;;-147.86;100.00;13323.45;105690;1259;63959;-53
2024/02/09 00:23:08;;;;;;;6.80;4.90;;;;;;;-147.86;100.00;12827.23;105654;1258;72256;-55
2024/02/09 00:25:38;;;;;;;7.80;5.20;;;;;;;-147.86;100.00;11995.12;105707;1253;59779;-60
2024/02/09 00:28:06;;;;;;;7.70;5.00;;;;;;;-147.86;100.00;11570.89;105721;1254;60031;-57
2024/02/09 00:30:38;;;;;;;9.70;4.80;;;;;;;-147.86;100.00;10938.22;105688;1254;73010;-54
2024/02/09 00:33:10;;;;;;;10.80;5.90;;;;;;;-147.86;100.00;10319.25;105723;1255;63106;-60
2024/02/09 00:35:41;;;;;;;11.50;6.70;;;;;;;-147.86;100.00;9727.54;105705;1253;71457;-59
2024/02/09 00:38:09;;;;;;;11.70;6.50;;;;;;;-147.86;100.00;9350.96;105647;1255;59785;-57
2024/02/09 00:40:38;;;;;;;14.60;6.90;;;;;;;-147.86;100.00;9115.69;105817;1254;59646;-55
2024/02/09 00:43:07;;;;;;;14.50;7.80;;;;;;;-147.86;100.00;8838.17;105726;1258;73027;-53
2024/02/09 00:45:35;;;;;;;14.30;7.60;;;;;;;-147.86;100.00;8694.92;105742;1258;63200;-58
2024/02/09 00:48:03;;;;;;;14.10;7.60;;;;;;;-147.86;100.00;8477.18;105676;1257;72636;-56
2024/02/09 00:50:31;;;;;;;10.50;5.80;;;;;;;-147.86;100.00;8260.64;105742;1255;59726;-55
2024/02/09 00:53:00;;;;;;;12.20;5.80;;;;;;;-147.86;100.00;8126.35;105832;1256;59686;-58
2024/02/09 00:55:29;;;;;;;8.90;5.30;;;;;;;-147.86;100.00;7916.43;105868;1254;71816;-56
2024/02/09 00:57:57;;;;;;;7.60;4.80;;;;;;;-147.86;100.00;7806.23;105730;1254;63081;-56
2024/02/09 01:00:26;;;;;;;8.90;5.20;;;;;;;-147.86;100.00;7776.72;105736;1257;71214;-54
2024/02/09 01:02:53;;;;;;;8.90;6.00;;;;;;;-147.86;100.00;7674.67;105753;1253;59631;-59
2024/02/09 01:05:21;;;;;;;8.60;5.70;;;;;;;-147.86;100.00;7467.45;105669;1254;59552;-51
2024/02/09 01:07:50;;;;;;;11.50;5.30;;;;;;;-147.86;100.00;7269.19;105676;1252;71730;-56
2024/02/09 01:10:18;;;;;;;8.30;5.40;;;;;;;-147.86;100.00;7096.17;105878;1257;63335;-55
2024/02/09 02:46:45;;;;;;;9.10;5.70;;;;;;;-147.86;100.00;22314.75;105747;1257;63096;-57
2024/02/09 03:05:54;;;;;;;6.50;5.10;;;;;;;-147.86;100.00;19425.04;105823;1254;60856;-57
2024/02/09 03:08:22;;;;;;;9.50;6.00;;;;;;;-147.86;100.00;19551.02;105710;1257;60343;-58
2024/02/09 03:11:10;;;;;;;7.90;5.70;;;;;;;-147.86;100.00;17717.41;105833;1257;72351;-55
2024/02/09 03:13:38;;;;;;;12.10;6.00;;;;;;;-147.86;100.00;19586.57;105900;1257;64446;-57
2024/02/09 03:16:07;;;;;;;8.70;6.20;;;;;;;-147.86;100.00;20244.01;105688;1254;71612;-56
2024/02/09 03:18:35;;;;;;;11.90;6.60;;;;;;;-147.86;100.00;20764.49;105728;1254;60556;-56
2024/02/09 03:21:03;;;;;;;10.60;5.60;;;;;;;-147.86;100.00;21061.19;105874;1257;60540;-57
2024/02/09 03:23:31;;;;;;;9.80;6.40;;;;;;;-147.86;100.00;21440.44;105745;1254;73731;-55
2024/02/09 03:25:59;;;;;;;8.80;6.00;;;;;;;-147.86;100.00;21786.25;105676;1254;64524;-58
2024/02/09 03:28:27;;;;;;;8.50;6.50;;;;;;;-147.86;100.00;22175.31;105654;1254;71673;-56
2024/02/09 03:53:14;;;;;;;6.60;5.00;;;;;;;-147.86;100.00;33887.07;102753;1290;600939;-55
2024/02/09 03:55:42;;;;;;;6.90;5.50;;;;;;;-147.86;100.00;22376.17;105145;1269;59691;-56
2024/02/09 03:58:10;;;;;;;10.70;5.80;;;;;;;-147.86;100.00;23791.31;105621;1270;59328;-58
2024/02/09 04:00:38;;;;;;;9.80;5.90;;;;;;;-147.86;100.00;24244.45;105554;1264;70951;-56
2024/02/09 04:03:06;;;;;;;6.70;5.10;;;;;;;-147.86;100.00;24501.66;105574;1260;63112;-58
2024/02/09 04:05:37;;;;;;;6.50;5.60;;;;;;;-147.86;100.00;24703.52;105558;1260;71512;-56
2024/02/09 04:08:05;;;;;;;9.00;6.00;;;;;;;-147.86;100.00;24478.45;105439;1260;277530;-56
2024/02/09 04:10:36;;;;;;;10.30;6.10;;;;;;;-147.86;100.00;24791.26;105673;1256;59308;-57
2024/02/09 04:13:12;;;;;;;10.60;6.20;;;;;;;-147.86;100.00;24020.23;105658;1260;70975;-56
2024/02/09 04:15:42;;;;;;;12.20;6.80;;;;;;;-147.86;100.00;24597.31;105708;1260;64405;-55
2024/02/09 04:18:10;;;;;;;11.70;6.90;;;;;;;-147.86;100.00;24831.43;105656;1257;71381;-55
2024/02/09 04:20:38;;;;;;;14.80;8.00;;;;;;;-147.86;100.00;24906.65;105711;1261;59749;-54
2024/02/09 04:23:07;;;;;;;14.30;6.80;;;;;;;-147.86;100.00;24999.39;105674;1269;59567;-57
2024/02/09 04:25:36;;;;;;;11.50;6.40;;;;;;;-147.86;100.00;24781.24;105666;1261;71811;-58
2024/02/09 04:28:05;;;;;;;9.30;6.90;;;;;;;-147.86;100.00;24801.50;105665;1254;63107;-53
2024/02/09 04:30:33;;;;;;;13.10;6.80;;;;;;;-147.86;100.00;24854.45;105643;1260;71418;-57
2024/02/09 04:33:00;;;;;;;12.10;7.00;;;;;;;-147.86;100.00;24814.66;105616;1258;60863;-59
2024/02/09 04:35:28;;;;;;;10.90;5.60;;;;;;;-147.86;100.00;24748.44;105707;1260;59655;-56
2024/02/09 04:37:56;;;;;;;10.20;5.90;;;;;;;-147.86;100.00;24695.43;105741;1264;71777;-59
2024/02/09 04:40:25;;;;;;;9.50;5.80;;;;;;;-147.86;100.00;24621.39;105596;1254;63508;-57
2024/02/09 04:42:53;;;;;;;10.20;6.50;;;;;;;-147.86;100.00;24355.73;105682;1256;71363;-56
2024/02/09 04:45:22;;;;;;;11.30;6.00;;;;;;;-147.86;100.00;24409.81;105655;1254;59666;-58
2024/02/09 04:47:50;;;;;;;11.90;7.00;;;;;;;-147.86;100.00;24094.28;105730;1259;59634;-55
2024/02/09 04:50:21;;;;;;;10.10;5.90;;;;;;;-147.86;100.00;24018.61;105635;1257;71831;-58
2024/02/09 04:52:49;;;;;;;7.40;5.90;;;;;;;-147.86;100.00;23633.77;105625;1264;64407;-56
2024/02/09 04:55:17;;;;;;;8.60;6.40;;;;;;;-147.86;100.00;23627.81;105645;1260;71314;-60
2024/02/09 04:57:45;;;;;;;10.20;5.60;;;;;;;-147.86;100.00;23508.55;105591;1263;59793;-57
2024/02/09 05:00:13;;;;;;;8.60;5.50;;;;;;;-147.86;100.00;23374.50;105612;1257;60053;-60
2024/02/09 05:02:44;;;;;;;10.00;5.80;;;;;;;-147.86;100.00;23124.02;105602;1261;73020;-54
2024/02/09 05:05:12;;;;;;;9.00;5.90;;;;;;;-147.86;100.00;22666.40;105642;1266;63464;-56
2024/02/09 05:07:40;;;;;;;8.70;5.90;;;;;;;-147.86;100.00;22644.84;105632;1262;71641;-57
2024/02/09 05:10:08;;;;;;;8.50;5.80;;;;;;;-147.86;100.00;22449.28;105567;1264;59746;-57
2024/02/09 05:12:36;;;;;;;7.20;5.20;;;;;;;-147.86;100.00;22145.87;105630;1264;59618;-58
2024/02/09 05:15:04;;;;;;;6.90;6.10;;;;;;;-147.86;100.00;21997.44;105639;1261;70888;-56
2024/02/09 05:17:33;;;;;;;7.50;5.80;;;;;;;-147.86;100.00;21759.89;105584;1261;64362;-56
2024/02/09 05:20:01;;;;;;;8.30;6.10;;;;;;;-147.86;100.00;21493.94;105660;1261;71371;-57
2024/02/09 05:22:29;;;;;;;10.00;6.30;;;;;;;-147.86;100.00;21357.21;105628;1264;59739;-55
2024/02/09 05:24:57;;;;;;;8.90;5.90;;;;;;;-147.86;100.00;21196.36;105571;1260;59691;-57
2024/02/09 05:27:25;;;;;;;7.10;5.80;;;;;;;-147.86;100.00;20989.22;105606;1257;73028;-55
2024/02/09 05:29:54;;;;;;;7.20;5.60;;;;;;;-147.86;100.00;20829.17;105582;1257;63273;-58
2024/02/09 05:32:22;;;;;;;9.10;5.30;;;;;;;-147.86;100.00;20522.42;105623;1257;71686;-57
2024/02/09 05:34:50;;;;;;;6.70;5.50;;;;;;;-147.86;100.00;20494.32;105683;1261;59749;-54
2024/02/09 05:37:18;;;;;;;12.70;5.70;;;;;;;-147.86;100.00;20237.78;105664;1261;59659;-56
2024/02/09 05:39:45;;;;;;;10.20;5.90;;;;;;;-147.86;100.00;20077.37;105559;1256;70827;-55
2024/02/09 05:42:13;;;;;;;9.70;6.70;;;;;;;-147.86;100.00;19905.30;105595;1260;62565;-55
2024/02/09 05:44:41;;;;;;;8.60;6.30;;;;;;;-147.86;100.00;19736.36;105587;1262;71699;-56
2024/02/09 05:47:08;;;;;;;8.80;6.60;;;;;;;-147.86;100.00;19563.91;105563;1258;60204;-54
2024/02/09 05:49:37;;;;;;;9.60;7.00;;;;;;;-147.86;100.00;19392.64;105574;1255;59573;-54
2024/02/09 05:52:08;;;;;;;7.90;5.60;;;;;;;-147.86;100.00;19172.35;105642;1257;71738;-56
2024/02/09 05:54:36;;;;;;;7.50;6.20;;;;;;;-147.86;100.00;19000.31;105649;1261;64367;-57
2024/02/09 05:57:06;;;;;;;10.80;7.10;;;;;;;-147.86;100.00;18946.19;105594;1258;71719;-56
2024/02/09 05:59:34;;;;;;;8.40;6.30;;;;;;;-147.86;100.00;18832.91;105626;1257;59717;-53
2024/02/09 06:02:01;;;;;;;9.70;6.80;;;;;;;-147.86;100.00;18739.50;105602;1261;59634;-55
2024/02/09 06:04:30;;;;;;;6.50;5.60;;;;;;;-147.86;100.00;18654.65;105617;1261;71776;-58
2024/02/09 06:06:59;;;;;;;13.20;6.10;;;;;;;-147.86;100.00;18618.82;105670;1258;63079;-54
2024/02/09 06:09:29;;;;;;;10.80;5.70;;;;;;;-147.86;100.00;18600.14;105590;1260;71356;-56
2024/02/09 06:11:58;;;;;;;7.30;5.90;;;;;;;-147.86;100.00;18617.26;105582;1258;59757;-55
2024/02/09 06:14:26;;;;;;;7.10;5.60;;;;;;;-147.86;100.00;18643.73;105646;1260;59686;-55
2024/02/09 06:16:55;;;;;;;6.90;5.30;;;;;;;-147.86;100.00;18622.32;105571;1262;72078;-55
2024/02/09 06:19:23;;;;;;;6.60;5.50;;;;;;;-147.86;100.00;18722.35;105599;1257;63191;-57
2024/02/09 06:21:52;;;;;;;6.90;5.50;;;;;;;-147.86;100.00;18837.17;105613;1261;71359;-52
2024/02/09 06:24:24;;;;;;;7.90;5.70;;;;;;;-147.86;100.00;18994.79;105580;1260;60008;-58
2024/02/09 06:26:52;;;;;;;7.20;5.80;;;;;;;-147.86;100.00;19387.98;105614;1261;59739;-53
2024/02/09 06:29:21;;;;;;;8.20;5.60;;;;;;;-147.86;100.00;19296.43;105578;1258;71470;-55
2024/02/09 06:31:56;;;;;;;9.30;6.00;;;;;;;-147.86;100.00;19536.61;105611;1260;63515;-52
2024/02/09 06:34:24;;;;;;;6.90;5.80;;;;;;;-147.86;100.00;20021.74;105600;1257;71433;-54
2024/02/09 06:36:53;;;;;;;6.10;5.20;;;;;;;-147.86;100.00;19883.04;105568;1261;59733;-55
2024/02/09 06:39:23;;;;;;;6.50;5.50;;;;;;;-147.86;100.00;20023.17;105647;1260;59633;-56
2024/02/09 06:41:51;;;;;;;10.50;5.50;;;;;;;-147.86;100.00;20233.01;105638;1257;72146;-52
2024/02/09 06:44:18;;;;;;;6.60;5.10;;;;;;;-147.86;100.00;20243.11;105589;1257;64455;-53
2024/02/09 06:46:46;;;;;;;7.20;5.40;;;;;;;-147.86;100.00;20414.80;105630;1258;71400;-52
2024/02/09 06:49:15;;;;;;;6.40;5.30;;;;;;;-147.86;100.00;20422.59;105566;1258;59676;-54
2024/02/09 06:51:44;;;;;;;6.20;4.30;;;;;;;-147.86;100.00;20482.57;105628;1261;59609;-55
2024/02/09 06:54:12;;;;;;;7.30;5.00;;;;;;;-147.86;100.00;20488.02;105575;1260;72170;-54
2024/02/09 06:56:40;;;;;;;6.00;5.10;;;;;;;-147.86;100.00;20406.66;105657;1257;63493;-52
2024/02/09 06:59:09;;;;;;;5.90;4.90;;;;;;;-147.86;100.00;20308.53;105588;1264;71894;-52
2024/02/09 07:01:39;;;;;;;7.00;5.30;;;;;;;-147.86;100.00;20340.10;105655;1260;59672;-53
2024/02/09 07:04:09;;;;;;;7.70;5.40;;;;;;;-147.86;100.00;20290.28;105605;1257;59632;-56
2024/02/09 07:06:40;;;;;;;6.90;5.00;;;;;;;-147.86;100.00;20268.12;105627;1257;71759;-51
2024/02/09 07:09:07;;;;;;;5.40;4.90;;;;;;;-147.86;100.00;20114.72;105564;1258;64396;-55
2024/02/09 07:11:36;;;;;;;5.30;4.80;;;;;;;-147.86;100.00;19951.99;105652;1260;71719;-55
2024/02/09 07:14:04;;;;;;;6.00;4.50;;;;;;;-147.86;100.00;19702.06;105553;1261;59759;-56
2024/02/09 07:16:33;;;;;;;6.10;4.60;;;;;;;-147.86;100.00;19568.19;105634;1257;59752;-55
2024/02/09 07:19:02;;;;;;;8.00;4.90;;;;;;;-147.86;100.00;19625.78;105610;1257;71772;-54
2024/02/09 07:21:30;;;;;;;4.40;4.00;;;;;;;-147.86;100.00;19554.20;105641;1257;64338;-54
2024/02/09 07:23:58;;;;;;;5.00;4.10;;;;;;;-147.86;100.00;19192.21;105548;1261;71550;-53
2024/02/09 07:26:32;;;;;;;4.30;3.90;;;;;;;-147.86;100.00;19355.85;105574;1257;59834;-57
2024/02/09 07:29:01;;;;;;;5.10;4.30;;;;;;;-147.86;100.00;18662.57;105575;1260;59704;-54
2024/02/09 07:31:30;;;;;;;4.40;3.80;;;;;;;-147.86;100.00;18244.29;105597;1257;71849;-51
2024/02/09 07:33:58;;;;;;;3.80;3.50;;;;;;;-147.86;100.00;17882.86;105646;1260;64348;-56
2024/02/09 07:36:27;;;;;;;4.40;3.80;;;;;;;-147.86;100.00;17463.44;105561;1257;70431;-53
2024/02/09 07:38:54;;;;;;;3.80;3.50;;;;;;;-147.86;100.00;17157.30;105656;1258;60817;-54
2024/02/09 07:41:23;;;;;;;4.20;3.80;;;;;;;-147.86;100.00;16838.70;105530;1261;59576;-53
2024/02/09 07:43:51;;;;;;;4.80;4.00;;;;;;;-147.86;100.00;16549.69;105569;1260;72090;-57
2024/02/09 07:46:19;;;;;;;4.00;3.70;;;;;;;-147.86;100.00;16335.01;105578;1260;64553;-55
2024/02/09 07:48:48;;;;;;;4.00;3.50;;;;;;;-147.86;100.00;16148.32;105618;1260;71472;-54
2024/02/09 07:51:20;;;;;;;4.90;4.20;;;;;;;-147.86;100.00;15993.54;105593;1260;61207;-53
2024/02/09 07:53:52;;;;;;;7.20;3.90;;;;;;;-147.86;100.00;15977.62;105621;1270;59566;-53
2024/02/09 07:56:23;;;;;;;4.60;4.00;;;;;;;-147.86;100.00;15868.73;105615;1258;71748;-53
2024/02/09 07:58:52;;;;;;;4.20;3.80;;;;;;;-147.86;100.00;15721.32;105559;1260;64480;-55
2024/02/09 08:01:21;;;;;;;4.90;4.00;;;;;;;-147.86;100.00;15623.32;105608;1257;75449;-52
2024/02/09 08:03:50;;;;;;;5.30;3.70;;;;;;;-147.86;100.00;15561.49;105584;1261;60492;-56
2024/02/09 08:06:19;;;;;;;3.90;3.60;;;;;;;-147.86;100.00;15468.57;105602;1257;60450;-55
2024/02/09 08:08:52;;;;;;;4.40;4.00;;;;;;;-147.86;100.00;15411.80;105603;1261;74087;-54
2024/02/09 08:11:23;;;;;;;5.00;4.00;;;;;;;-147.86;100.00;15465.85;105608;1260;63263;-55
2024/02/09 08:13:52;;;;;;;5.30;3.20;;;;;;;-147.86;100.00;15347.27;105549;1257;74928;-55
2024/02/09 08:16:23;;;;;;;5.70;4.10;;;;;;;-147.86;100.00;15302.57;105611;1260;62951;-56
2024/02/09 08:18:52;;;;;;;4.60;3.60;;;;;;;-147.86;100.00;15355.84;105602;1260;60447;-54
2024/02/09 08:21:22;;;;;;;4.00;3.60;;;;;;;-147.86;100.00;15309.98;105615;1261;72248;-52
2024/02/09 08:23:50;;;;;;;8.80;4.10;;;;;;;-147.86;100.00;15293.68;105604;1258;64465;-54
2024/02/09 08:26:18;;;;;;;4.10;3.70;;;;;;;-147.86;100.00;15315.86;105615;1260;72674;-53
2024/02/09 08:28:47;;;;;;;4.90;3.50;;;;;;;-147.86;100.00;15384.69;105567;1258;60508;-54
2024/02/09 08:31:16;;;;;;;5.00;4.40;;;;;;;-147.86;100.00;15408.82;105634;1260;60334;-57
2024/02/09 08:33:49;;;;;;;4.00;3.70;;;;;;;-147.86;100.00;15485.03;105622;1257;72613;-55
2024/02/09 08:36:21;;;;;;;4.60;4.00;;;;;;;-147.86;100.00;15397.58;105578;1260;64377;-53
2024/02/09 08:38:50;;;;;;;6.30;4.40;;;;;;;-147.86;100.00;15413.55;105618;1260;71385;-52
2024/02/09 08:41:18;;;;;;;4.60;4.20;;;;;;;-147.86;100.00;15560.12;105498;1257;60924;-55
2024/02/09 08:43:48;;;;;;;4.10;3.70;;;;;;;-147.86;100.00;15652.25;105308;1260;60402;-54
2024/02/09 08:46:15;;;;;;;4.90;4.00;;;;;;;-147.86;100.00;15585.79;105613;1260;73797;-56
2024/02/09 08:48:44;;;;;;;5.60;4.20;;;;;;;-147.86;100.00;15715.65;105580;1261;66697;-53
2024/02/09 08:51:12;;;;;;;4.40;4.00;;;;;;;-147.86;100.00;15756.88;105624;1257;73122;-54
2024/02/09 08:53:39;;;;;;;4.90;4.00;;;;;;;-147.86;100.00;15898.42;105587;1258;60511;-53
2024/02/09 08:56:09;;;;;;;4.80;4.30;;;;;;;-147.86;100.00;15890.28;105724;1260;60523;-54
2024/02/09 08:58:37;;;;;;;4.30;3.80;;;;;;;-147.86;100.00;15954.45;105594;1261;74103;-54
2024/02/09 09:01:05;;;;;;;4.00;3.70;;;;;;;-147.86;100.00;16206.81;105568;1261;63274;-55
2024/02/09 09:03:33;;;;;;;4.50;3.70;;;;;;;-147.86;100.00;16291.20;105574;1260;70396;-52
2024/02/09 09:06:03;;;;;;;4.10;3.70;;;;;;;-147.86;100.00;16311.04;105591;1260;61161;-51
2024/02/09 09:08:31;;;;;;;4.20;3.80;;;;;;;-147.86;100.00;16244.58;105561;1257;60594;-52
2024/02/09 09:11:01;;;;;;;4.30;3.90;;;;;;;-147.86;100.00;16361.20;105559;1260;73452;-49
2024/02/09 09:13:30;;;;;;;4.70;4.30;;;;;;;-147.86;100.00;16256.66;105616;1257;64442;-53
2024/02/09 09:15:58;;;;;;;4.10;3.70;;;;;;;-147.86;100.00;16366.30;105572;1258;74964;-54
2024/02/09 09:18:28;;;;;;;4.80;3.90;;;;;;;-147.86;100.00;16431.59;105619;1260;61532;-51
2024/02/09 09:20:56;;;;;;;5.90;4.60;;;;;;;-147.86;100.00;16309.91;105687;1257;60419;-56
2024/02/09 09:23:24;;;;;;;4.20;3.80;;;;;;;-147.86;100.00;16411.38;105627;1260;72609;-53
2024/02/09 09:25:52;;;;;;;5.70;4.40;;;;;;;-147.86;100.00;16482.15;105568;1260;65331;-53
2024/02/09 09:28:19;;;;;;;5.60;4.50;;;;;;;-147.86;100.00;16499.27;105610;1256;71926;-54
2024/02/09 09:30:47;;;;;;;4.70;4.20;;;;;;;-147.86;100.00;16585.61;105576;1256;63019;-51
2024/02/09 09:33:15;;;;;;;6.00;4.50;;;;;;;-147.86;100.00;16679.73;105600;1260;60338;-52
2024/02/09 09:35:43;;;;;;;7.30;5.20;;;;;;;-147.86;100.00;16734.57;105551;1257;73835;-50
2024/02/09 09:38:13;;;;;;;5.60;4.60;;;;;;;-147.86;100.00;16692.65;105595;1257;63896;-56
2024/02/09 09:40:40;;;;;;;4.90;4.40;;;;;;;-147.86;100.00;16937.21;105571;1257;72287;-54
2024/02/09 09:43:09;;;;;;;4.80;4.40;;;;;;;-147.86;100.00;16935.28;105828;1256;62792;-54
2024/02/09 09:45:37;;;;;;;5.70;4.40;;;;;;;-147.86;100.00;16846.23;105842;1254;61810;-53
2024/02/09 09:48:06;;;;;;;5.60;4.30;;;;;;;-147.86;100.00;16922.44;105668;1254;76129;-53
2024/02/09 09:50:35;;;;;;;4.20;3.80;;;;;;;-147.86;100.00;16840.82;105902;1257;64291;-53
2024/02/09 09:53:03;;;;;;;5.10;3.80;;;;;;;-147.86;100.00;16894.07;105832;1253;73150;-52
2024/02/09 09:55:32;;;;;;;6.60;3.90;;;;;;;-147.86;100.00;16974.18;105703;1258;60508;-52
2024/02/09 09:57:59;;;;;;;4.30;3.90;;;;;;;-147.86;100.00;16994.05;105915;1253;61958;-51
2024/02/09 10:00:27;;;;;;;4.20;3.80;;;;;;;-147.86;100.00;17167.12;105643;1257;74656;-54
2024/02/09 10:02:55;;;;;;;5.50;3.80;;;;;;;-147.86;100.00;17265.15;105713;1259;65188;-53
2024/02/09 10:05:23;;;;;;;4.90;3.50;;;;;;;-147.86;100.00;17347.22;105812;1254;74519;-54
2024/02/09 10:07:51;;;;;;;4.20;3.80;;;;;;;-147.86;100.00;17351.52;105668;1260;62985;-52
2024/02/09 10:10:22;;;;;;;4.50;4.00;;;;;;;-147.86;100.00;17145.84;105823;1252;61221;-56
2024/02/09 10:13:11;;;;;;;4.60;3.70;;;;;;;-147.86;100.00;17426.21;105684;1254;75682;-55
2024/02/09 10:15:45;;;;;;;9.30;4.50;;;;;;;-147.86;100.00;16033.01;105810;1257;64272;-57
2024/02/09 10:18:13;;;;;;;4.20;3.80;;;;;;;-147.86;100.00;17033.54;105876;1254;71698;-55
2024/02/09 10:20:42;;;;;;;5.50;4.20;;;;;;;-147.86;100.00;17490.80;105822;1257;63345;-55
2024/02/09 10:23:10;;;;;;;7.10;4.50;;;;;;;-147.86;100.00;17512.61;105880;1252;60361;-55
2024/02/09 10:25:39;;;;;;;5.20;4.20;;;;;;;-147.86;100.00;17650.28;105843;1255;75755;-53
2024/02/09 10:28:07;;;;;;;6.70;4.90;;;;;;;-147.86;100.00;17585.37;105910;1257;66650;-52
2024/02/09 10:30:38;;;;;;;5.40;4.50;;;;;;;-147.86;100.00;17754.96;105719;1260;73553;-52
2024/02/09 10:33:06;;;;;;;9.90;5.00;;;;;;;-147.86;100.00;17651.18;105804;1254;60430;-52
2024/02/09 10:35:34;;;;;;;5.10;4.50;;;;;;;-147.86;100.00;17855.34;105862;1254;62366;-54
2024/02/09 10:38:03;;;;;;;6.40;4.80;;;;;;;-147.86;100.00;17914.49;105811;1254;73710;-54
2024/02/09 10:40:33;;;;;;;6.30;4.50;;;;;;;-147.86;100.00;18026.12;105851;1257;64560;-52
2024/02/09 10:43:02;;;;;;;6.70;4.40;;;;;;;-147.86;100.00;17914.15;105805;1254;75859;-51
2024/02/09 10:45:32;;;;;;;5.80;4.40;;;;;;;-147.86;100.00;18030.05;105855;1257;61576;-54
2024/02/09 10:48:00;;;;;;;5.40;4.60;;;;;;;-147.86;100.00;17936.75;105806;1254;60515;-54
2024/02/09 10:50:29;;;;;;;4.20;3.80;;;;;;;-147.86;100.00;18262.31;105713;1255;74903;-54
2024/02/09 10:53:00;;;;;;;8.40;5.00;;;;;;;-147.86;100.00;18203.99;105764;1259;64711;-54
2024/02/09 10:55:29;;;;;;;7.00;4.60;;;;;;;-147.86;100.00;18084.58;105779;1254;74622;-49
2024/02/09 10:57:57;;;;;;;4.70;4.30;;;;;;;-147.86;100.00;18228.90;105822;1257;60734;-50
2024/02/09 11:01:12;;;;;;;;;;;;;;;-147.86;100.00;36970.27;102753;1292;600979;-54
2024/02/09 11:03:40;;;;;;;3.90;3.60;;;;;;;-147.86;100.00;20134.02;104828;1267;61922;-52
2024/02/09 11:06:10;;;;;;;4.40;4.00;;;;;;;-147.86;100.00;17934.84;104820;1266;61863;-53
2024/02/09 11:08:38;;;;;;;4.30;3.90;;;;;;;-147.86;100.00;14721.43;105046;1269;73303;-49
2024/02/09 11:11:05;;;;;;;4.00;3.40;;;;;;;-147.86;100.00;11961.24;104837;1271;64717;-52
2024/02/09 11:13:34;;;;;;;4.00;3.60;;;;;;;-147.86;100.00;9847.03;104837;1271;72550;-51
2024/02/09 11:16:02;;;;;;;5.10;3.70;;;;;;;-147.86;100.00;8722.79;104987;1268;241481;-53
2024/02/09 11:18:31;;;;;;;4.00;3.60;;;;;;;-147.86;100.00;8640.48;105185;1263;62577;-52
2024/02/09 11:21:02;;;;;;;5.30;3.80;;;;;;;-147.86;100.00;9076.01;105191;1268;73855;-52
2024/02/09 11:23:31;;;;;;;5.80;4.30;;;;;;;-147.86;100.00;9576.06;105691;1259;64668;-54
2024/02/09 11:26:00;;;;;;;6.20;4.50;;;;;;;-147.86;100.00;10183.32;105700;1258;72703;-53
2024/02/09 11:28:27;;;;;;;5.30;4.20;;;;;;;-147.86;100.00;10745.99;105652;1258;60609;-54
2024/02/09 11:30:56;;;;;;;4.70;4.30;;;;;;;-147.86;100.00;11221.34;105631;1254;60340;-54
2024/02/09 11:33:23;;;;;;;5.40;4.30;;;;;;;-147.86;100.00;11596.95;105649;1255;73401;-51
2024/02/09 11:35:54;;;;;;;4.80;4.30;;;;;;;-147.86;100.00;11932.94;105659;1257;63570;-53
2024/02/09 11:38:22;;;;;;;4.80;3.80;;;;;;;-147.86;100.00;12040.99;105657;1259;72467;-51
2024/02/09 11:40:51;;;;;;;5.40;4.50;;;;;;;-147.86;100.00;12463.22;105639;1257;59686;-53
2024/02/09 11:43:18;;;;;;;4.20;3.80;;;;;;;-147.86;100.00;12687.04;105635;1256;59979;-55
2024/02/09 11:45:47;;;;;;;6.80;4.60;;;;;;;-147.86;100.00;13031.67;105630;1256;73494;-55
2024/02/09 11:48:23;;;;;;;3.60;3.30;;;;;;;-147.86;100.00;13011.57;105609;1259;65617;-55
2024/02/09 11:50:53;;;;;;;5.10;3.20;;;;;;;-147.86;100.00;13219.05;105596;1256;73830;-54
2024/02/09 11:53:21;;;;;;;3.80;3.50;;;;;;;-147.86;100.00;13496.46;105580;1259;60795;-53
2024/02/09 11:55:49;;;;;;;5.30;3.50;;;;;;;-147.86;100.00;13740.49;105590;1257;60253;-53
2024/02/09 11:58:17;;;;;;;3.90;3.50;;;;;;;-147.86;100.00;13879.63;105592;1256;75303;-53
2024/02/09 12:00:45;;;;;;;5.10;4.60;;;;;;;-147.86;100.00;14091.83;105580;1256;66591;-52
2024/02/09 12:54:33;;;;;;;5.00;3.90;;;;;;;-147.86;100.00;24919.18;103292;1288;600162;-54
2024/02/09 12:57:01;;;;;;;6.20;4.00;;;;;;;-147.86;100.00;12638.15;105088;1270;59187;-54
2024/02/09 12:59:28;;;;;;;6.40;3.50;;;;;;;-147.86;100.00;13314.17;105234;1261;59272;-55
2024/02/09 13:01:56;;;;;;;5.80;4.00;;;;;;;-147.86;100.00;13693.46;105211;1267;72040;-55
2024/02/09 13:04:24;;;;;;;4.70;4.10;;;;;;;-147.86;100.00;14042.87;105214;1267;64352;-55
2024/02/09 13:06:52;;;;;;;5.20;4.20;;;;;;;-147.86;100.00;14290.47;105223;1261;74514;-56
2024/02/09 13:09:20;;;;;;;4.30;3.90;;;;;;;-147.86;100.00;14630.59;105196;1263;234553;-54
2024/02/09 13:11:49;;;;;;;7.40;4.40;;;;;;;-147.86;100.00;14848.29;105434;1264;60078;-56
2024/02/09 13:14:19;;;;;;;5.80;4.50;;;;;;;-147.86;100.00;14954.86;105440;1257;73324;-51
2024/02/09 13:16:50;;;;;;;6.20;4.40;;;;;;;-147.86;100.00;15115.43;105399;1257;65311;-52
2024/02/09 13:19:18;;;;;;;6.30;4.50;;;;;;;-147.86;100.00;15295.08;105405;1263;72453;-55
2024/02/09 13:21:54;;;;;;;5.40;4.20;;;;;;;-147.86;100.00;15673.32;105411;1261;60927;-53
2024/02/09 13:24:23;;;;;;;11.20;6.00;;;;;;;-147.86;100.00;15225.65;105400;1258;59743;-55
2024/02/09 13:26:50;;;;;;;11.00;4.70;;;;;;;-147.86;100.00;15824.97;105573;1263;71686;-51
2024/02/09 13:29:24;;;;;;;7.50;5.30;;;;;;;-147.86;100.00;16013.17;105474;1264;64338;-54
2024/02/09 13:31:58;;;;;;;9.30;5.00;;;;;;;-147.86;100.00;15783.54;105392;1263;72794;-54
2024/02/09 13:34:26;;;;;;;7.60;4.70;;;;;;;-147.86;100.00;15812.34;105382;1264;62135;-54
2024/02/09 13:36:54;;;;;;;6.70;4.20;;;;;;;-147.86;100.00;16327.40;105415;1258;62289;-52
2024/02/09 13:39:26;;;;;;;9.70;4.70;;;;;;;-147.86;100.00;16509.39;105347;1258;74094;-55
2024/02/09 13:41:54;;;;;;;8.10;5.60;;;;;;;-147.86;100.00;16274.26;105433;1260;64511;-56
2024/02/09 13:44:22;;;;;;;7.70;5.90;;;;;;;-147.86;100.00;16734.21;105517;1257;73588;-55
2024/02/09 13:46:51;;;;;;;9.90;5.90;;;;;;;-147.86;100.00;16871.50;105423;1258;61558;-57
2024/02/09 13:49:19;;;;;;;18.50;9.10;;;;;;;-147.86;100.00;16872.70;105532;1257;60314;-55
2024/02/09 13:51:47;;;;;;;17.40;8.50;;;;;;;-147.86;100.00;16983.53;105269;1263;75329;-56
2024/02/09 13:54:17;;;;;;;16.90;7.30;;;;;;;-147.86;100.00;17080.75;105192;1266;65348;-56
2024/02/09 13:56:44;;;;;;;9.80;6.60;;;;;;;-147.86;100.00;16930.69;105337;1267;72978;-55
2024/02/09 13:59:14;;;;;;;12.20;7.00;;;;;;;-147.86;100.00;17206.80;105215;1267;61945;-58
2024/02/09 14:01:44;;;;;;;13.50;9.10;;;;;;;-147.86;100.00;17070.36;105260;1266;61523;-55
2024/02/09 14:04:12;;;;;;;9.90;7.80;;;;;;;-147.86;100.00;17253.89;105265;1266;75304;-56
2024/02/09 14:06:42;;;;;;;10.30;7.00;;;;;;;-147.86;100.00;17414.13;105227;1265;64043;-55
2024/02/09 14:09:10;;;;;;;9.50;6.60;;;;;;;-147.86;100.00;17266.39;105248;1261;74896;-56
2024/02/09 14:11:38;;;;;;;9.90;5.80;;;;;;;-147.86;100.00;17465.09;105275;1261;62047;-55
2024/02/09 14:14:11;;;;;;;17.10;6.40;;;;;;;-147.86;100.00;17108.13;105204;1261;60640;-57